Minneapolis, Minnesota
Traffic Map
Current Weather Conditions
Minneapolis, Minnesota
Broken Clouds
Broken Clouds
10°
Feels Like: 10°
Wind Chill: 10° Ceiling: 9000
Heat Index: 10° Visibility: 10mi
Dew Point: Wind: 13mph
Humidity: 80% Direction: 140° (SE)
Pressure: 29.85in Gusts: 24mph
Raw Report DataKMSP 010953Z 14011G21KT 10SM FEW050 SCT070 BKN090 10/07 A2985 RMK AO2 SLP109 T01000067
Traffic Incident Summary
Active as of:
Severity:
Category:
InformationThere was an issue retrieving the traffic information for this location. Please try a different location or try again shortly.
Advertisements
Track Severe Weather on mobile